createdAt,value
2018-12-15T00:00:58.962Z,0.61
2018-12-15T00:03:09.805Z,0.56
2018-12-15T00:05:20.649Z,0.53
2018-12-15T00:07:31.528Z,0.55
2018-12-15T00:09:42.375Z,0.55
2018-12-15T00:11:53.245Z,0.52
2018-12-15T00:14:04.125Z,0.48
2018-12-15T00:16:14.965Z,0.50
2018-12-15T00:18:25.820Z,0.52
2018-12-15T00:20:36.656Z,0.58
2018-12-15T00:22:47.545Z,0.57
2018-12-15T00:24:58.393Z,0.57
2018-12-15T00:27:09.315Z,0.56
2018-12-15T00:29:20.174Z,0.54
2018-12-15T00:31:31.020Z,0.51
2018-12-15T00:33:41.864Z,0.52
2018-12-15T00:35:52.709Z,0.56
2018-12-15T00:38:03.584Z,0.52
2018-12-15T00:40:15.236Z,0.53
2018-12-15T00:42:31.999Z,0.55
2018-12-15T00:44:42.857Z,0.59
2018-12-15T00:46:54.741Z,0.57
2018-12-15T00:49:05.630Z,0.52
2018-12-15T00:51:16.442Z,0.54
2018-12-15T00:53:27.277Z,0.58
2018-12-15T00:55:38.156Z,0.59
2018-12-15T00:57:49.002Z,0.59
2018-12-15T01:00:00.833Z,0.61
2018-12-15T01:02:11.663Z,0.55
2018-12-15T01:04:22.526Z,0.58
2018-12-15T01:06:33.393Z,0.59
2018-12-15T01:08:44.237Z,0.62
2018-12-15T01:10:55.099Z,0.61
2018-12-15T01:13:05.994Z,0.63
2018-12-15T01:15:19.088Z,0.66
2018-12-15T01:17:29.921Z,0.67
2018-12-15T01:19:40.786Z,0.65
2018-12-15T01:21:51.717Z,0.65
2018-12-15T01:24:02.703Z,0.65
2018-12-15T01:26:13.553Z,0.63
2018-12-15T01:28:24.384Z,0.70
2018-12-15T01:30:35.286Z,0.81
2018-12-15T01:32:46.193Z,0.75
2018-12-15T01:34:57.288Z,0.74
2018-12-15T01:37:08.117Z,0.71
2018-12-15T01:39:19.751Z,0.73
2018-12-15T01:41:30.696Z,0.76
2018-12-15T01:43:41.524Z,0.75
2018-12-15T01:45:52.416Z,0.79
2018-12-15T01:48:03.277Z,0.78
2018-12-15T01:50:14.137Z,0.76
2018-12-15T01:52:25.939Z,0.82
2018-12-15T01:54:36.782Z,0.84
2018-12-15T01:56:47.629Z,0.85
2018-12-15T01:58:58.528Z,0.81
2018-12-15T02:01:09.382Z,0.80
2018-12-15T02:03:20.220Z,0.82
2018-12-15T02:05:31.060Z,0.78
2018-12-15T02:07:41.908Z,0.76
2018-12-15T02:09:52.749Z,0.73
2018-12-15T02:12:03.593Z,0.73
2018-12-15T02:14:14.408Z,0.71
2018-12-15T02:16:25.240Z,0.76
2018-12-15T02:18:36.120Z,0.77
2018-12-15T02:20:46.941Z,0.75
2018-12-15T02:22:57.767Z,0.69
2018-12-15T02:25:08.589Z,0.67
2018-12-15T02:27:19.451Z,0.64
2018-12-15T02:29:30.280Z,0.64
2018-12-15T02:31:41.135Z,0.63
2018-12-15T02:33:51.956Z,0.67
2018-12-15T02:36:02.806Z,0.74
2018-12-15T02:38:13.609Z,0.74
2018-12-15T02:40:24.442Z,0.79
2018-12-15T02:42:35.279Z,0.81
2018-12-15T02:44:46.158Z,0.79
2018-12-15T02:46:57.000Z,0.83
2018-12-15T02:49:07.814Z,0.85
2018-12-15T02:51:18.644Z,0.86
2018-12-15T02:53:29.485Z,0.88
2018-12-15T02:55:40.290Z,0.86
2018-12-15T02:57:51.162Z,0.80
2018-12-15T03:00:02.834Z,0.77
2018-12-15T03:02:13.676Z,0.78
2018-12-15T03:04:24.492Z,0.78
2018-12-15T03:06:35.294Z,0.80
2018-12-15T03:08:46.172Z,0.87
2018-12-15T03:10:57.040Z,0.86
2018-12-15T03:13:07.853Z,0.80
2018-12-15T03:15:18.812Z,0.77
2018-12-15T03:17:29.635Z,0.76
2018-12-15T03:19:40.538Z,0.79
2018-12-15T03:21:51.441Z,0.81
2018-12-15T03:24:02.268Z,0.82
2018-12-15T03:26:13.105Z,0.81
2018-12-15T03:28:23.957Z,0.70
2018-12-15T03:30:34.903Z,0.64
2018-12-15T03:32:45.845Z,0.62
2018-12-15T03:34:56.790Z,0.62
2018-12-15T03:37:07.607Z,0.67
2018-12-15T03:39:18.455Z,0.68
2018-12-15T03:41:29.388Z,0.77
2018-12-15T03:43:40.256Z,0.75
2018-12-15T03:45:51.101Z,0.74
2018-12-15T03:48:02.156Z,0.70
2018-12-15T03:50:13.112Z,0.70
2018-12-15T03:52:23.938Z,0.77
2018-12-15T03:54:34.811Z,0.79
2018-12-15T03:56:45.673Z,0.78
2018-12-15T03:58:56.546Z,0.75
2018-12-15T04:01:07.497Z,0.75
2018-12-15T04:03:18.345Z,0.77
2018-12-15T04:05:29.203Z,0.73
2018-12-15T04:07:40.137Z,0.74
2018-12-15T04:09:50.949Z,0.78
2018-12-15T04:12:01.792Z,0.77
2018-12-15T04:14:12.613Z,0.70
2018-12-15T04:16:23.441Z,0.63
2018-12-15T04:18:34.324Z,0.60
2018-12-15T04:20:45.178Z,0.64
2018-12-15T04:22:56.022Z,0.63
2018-12-15T04:25:07.009Z,0.60
2018-12-15T04:27:17.854Z,0.60
2018-12-15T04:29:28.805Z,0.60
2018-12-15T04:31:39.650Z,0.62
2018-12-15T04:33:50.472Z,0.66
2018-12-15T04:36:10.276Z,0.66
2018-12-15T04:38:21.196Z,0.68
2018-12-15T04:40:32.250Z,0.66
2018-12-15T04:42:43.083Z,0.64
2018-12-15T04:44:53.950Z,0.64
2018-12-15T04:47:05.109Z,0.66
2018-12-15T04:49:16.126Z,0.61
2018-12-15T04:51:27.012Z,0.64
2018-12-15T04:53:37.958Z,0.67
2018-12-15T04:55:48.769Z,0.70
2018-12-15T04:57:59.586Z,0.70
2018-12-15T05:00:10.413Z,0.78
2018-12-15T05:02:21.346Z,0.67
2018-12-15T05:04:32.230Z,0.62
2018-12-15T05:06:43.065Z,0.62
2018-12-15T05:08:53.949Z,0.59
2018-12-15T05:11:04.792Z,0.58
2018-12-15T05:13:15.621Z,0.61
2018-12-15T05:15:26.468Z,0.64
2018-12-15T05:17:37.281Z,0.62
2018-12-15T05:19:48.228Z,0.66
2018-12-15T05:21:59.068Z,0.67
2018-12-15T05:24:09.927Z,0.71
2018-12-15T05:26:20.785Z,0.74
2018-12-15T05:28:31.639Z,0.69
2018-12-15T05:30:42.483Z,0.73
2018-12-15T05:32:53.405Z,0.75
2018-12-15T05:35:04.261Z,0.84
2018-12-15T05:37:15.087Z,0.83
2018-12-15T05:39:25.932Z,0.80
2018-12-15T05:41:36.752Z,0.75
2018-12-15T05:43:47.610Z,0.79
2018-12-15T05:45:58.412Z,0.69
2018-12-15T05:48:09.244Z,0.66
2018-12-15T05:50:20.239Z,0.69
2018-12-15T05:52:31.068Z,0.69
2018-12-15T05:54:41.908Z,0.73
2018-12-15T05:56:52.713Z,0.74
2018-12-15T05:59:03.566Z,0.75
2018-12-15T06:01:14.424Z,0.73
2018-12-15T06:03:25.256Z,0.74
2018-12-15T06:05:36.240Z,0.69
2018-12-15T06:07:47.184Z,0.74
2018-12-15T06:09:58.056Z,0.75
2018-12-15T06:12:08.906Z,0.71
2018-12-15T06:14:19.866Z,0.68
2018-12-15T06:16:30.700Z,0.62
2018-12-15T06:18:41.533Z,0.57
2018-12-15T06:20:52.372Z,0.61
2018-12-15T06:23:03.188Z,0.66
2018-12-15T06:25:14.037Z,0.63
2018-12-15T06:27:24.878Z,0.64
2018-12-15T06:29:35.693Z,0.61
2018-12-15T06:31:46.644Z,0.62
2018-12-15T06:33:57.452Z,0.71
2018-12-15T06:36:08.313Z,0.75
2018-12-15T06:38:19.168Z,0.68
2018-12-15T06:40:30.039Z,0.64
2018-12-15T06:42:40.926Z,0.65
2018-12-15T06:44:51.766Z,0.60
2018-12-15T06:47:02.647Z,0.68
2018-12-15T06:49:13.571Z,0.69
2018-12-15T06:51:24.432Z,0.60
2018-12-15T06:53:35.253Z,0.61
2018-12-15T06:55:46.106Z,0.63
2018-12-15T06:57:56.952Z,0.59
2018-12-15T07:00:08.097Z,0.64
2018-12-15T07:02:18.944Z,0.64
2018-12-15T07:04:29.772Z,0.70
2018-12-15T07:06:42.055Z,0.64
2018-12-15T07:08:53.076Z,0.66
2018-12-15T07:11:03.917Z,0.63
2018-12-15T07:13:14.789Z,0.65
2018-12-15T07:15:25.644Z,0.66
2018-12-15T07:17:37.356Z,0.66
2018-12-15T07:19:48.440Z,0.68
2018-12-15T07:21:59.316Z,0.71
2018-12-15T07:24:10.182Z,0.75
2018-12-15T07:26:21.008Z,0.71
2018-12-15T07:28:31.857Z,0.67
2018-12-15T07:30:42.702Z,0.69
2018-12-15T07:32:53.624Z,0.67
2018-12-15T07:35:04.596Z,0.63
2018-12-15T07:37:15.449Z,0.62
2018-12-15T07:39:26.476Z,0.61
2018-12-15T07:41:37.305Z,0.57
2018-12-15T07:43:48.164Z,0.63
2018-12-15T07:45:59.003Z,0.64
2018-12-15T07:48:09.820Z,0.67
2018-12-15T07:50:20.745Z,0.62
2018-12-15T07:52:31.620Z,0.91
2018-12-15T07:54:42.529Z,1.95
2018-12-15T07:56:53.396Z,2.71
2018-12-15T07:59:04.365Z,2.74
2018-12-15T08:01:15.225Z,2.40
2018-12-15T08:03:26.093Z,2.10
2018-12-15T08:05:37.093Z,1.88
2018-12-15T08:07:47.938Z,1.58
2018-12-15T08:10:00.879Z,1.41
2018-12-15T08:12:17.988Z,1.27
2018-12-15T08:14:28.852Z,1.17
2018-12-15T08:16:39.735Z,1.15
2018-12-15T08:18:50.570Z,1.11
2018-12-15T08:21:01.436Z,1.04
2018-12-15T08:23:12.263Z,1.02
2018-12-15T08:25:23.156Z,1.04
2018-12-15T08:27:34.063Z,1.05
2018-12-15T08:29:45.065Z,1.01
2018-12-15T08:31:55.964Z,1.00
2018-12-15T08:34:06.821Z,0.98
2018-12-15T08:36:17.765Z,0.98
2018-12-15T08:38:28.640Z,0.98
2018-12-15T08:40:39.516Z,0.91
2018-12-15T08:42:50.374Z,0.92
2018-12-15T08:45:01.230Z,0.93
2018-12-15T08:47:12.110Z,0.92
2018-12-15T08:49:23.016Z,0.89
2018-12-15T08:51:33.993Z,0.91
2018-12-15T08:53:44.947Z,0.94
2018-12-15T08:55:55.913Z,0.97
2018-12-15T08:58:06.793Z,0.95
2018-12-15T09:00:17.628Z,0.98
2018-12-15T09:02:28.568Z,1.00
2018-12-15T09:04:39.422Z,0.97
2018-12-15T09:06:50.313Z,0.95
2018-12-15T09:09:01.173Z,0.99
2018-12-15T09:11:12.341Z,1.07
2018-12-15T09:13:23.209Z,1.05
2018-12-15T09:15:34.052Z,1.03
2018-12-15T09:17:44.925Z,1.05
2018-12-15T09:19:55.791Z,0.91
2018-12-15T09:22:11.593Z,0.95
2018-12-15T09:24:19.935Z,1.00
2018-12-15T09:26:30.760Z,0.95
2018-12-15T09:28:41.644Z,0.92
2018-12-15T09:30:52.592Z,0.95
2018-12-15T09:33:03.449Z,0.98
2018-12-15T09:35:14.303Z,1.03
2018-12-15T09:37:25.184Z,1.08
2018-12-15T09:39:36.096Z,1.10
2018-12-15T09:41:46.959Z,1.10
2018-12-15T09:43:57.832Z,1.09
2018-12-15T09:46:08.785Z,1.05
2018-12-15T09:48:19.628Z,1.08
2018-12-15T09:50:30.497Z,1.08
2018-12-15T09:52:41.452Z,1.16
2018-12-15T09:54:52.298Z,1.14
2018-12-15T09:57:04.081Z,1.16
2018-12-15T09:59:14.954Z,1.14
2018-12-15T10:01:25.862Z,1.10
2018-12-15T10:03:36.769Z,1.11
2018-12-15T10:05:47.630Z,1.15
2018-12-15T10:07:58.523Z,1.12
2018-12-15T10:10:09.561Z,1.06
2018-12-15T10:12:20.395Z,1.00
2018-12-15T10:14:31.273Z,1.01
2018-12-15T10:16:42.219Z,1.01
2018-12-15T10:18:53.104Z,1.01
2018-12-15T10:21:03.992Z,1.06
2018-12-15T10:23:14.844Z,1.09
2018-12-15T10:25:25.730Z,1.10
2018-12-15T10:27:36.568Z,1.05
2018-12-15T10:29:53.598Z,1.08
2018-12-15T10:32:10.657Z,1.13
2018-12-15T10:34:21.538Z,1.11
2018-12-15T10:36:32.392Z,1.08
2018-12-15T10:38:43.273Z,1.07
2018-12-15T10:40:54.115Z,1.11
2018-12-15T10:43:04.957Z,1.14
2018-12-15T10:45:15.876Z,1.10
2018-12-15T10:47:26.707Z,1.12
2018-12-15T10:49:37.602Z,1.16
2018-12-15T10:51:48.477Z,1.18
2018-12-15T10:53:59.338Z,1.13
2018-12-15T10:56:10.203Z,1.07
2018-12-15T10:58:21.046Z,1.05
2018-12-15T11:00:37.951Z,1.06
2018-12-15T11:02:48.876Z,1.14
2018-12-15T11:04:59.761Z,1.18
2018-12-15T11:07:10.640Z,1.23
2018-12-15T11:09:21.538Z,1.23
2018-12-15T11:11:32.413Z,1.20
2018-12-15T11:13:43.288Z,1.15
2018-12-15T11:15:54.119Z,1.10
2018-12-15T11:18:04.989Z,1.09
2018-12-15T11:20:15.849Z,1.14
2018-12-15T11:22:26.722Z,1.18
2018-12-15T11:24:37.576Z,1.25
2018-12-15T11:26:48.432Z,1.19
2018-12-15T11:28:59.262Z,1.15
2018-12-15T11:31:10.128Z,1.14
2018-12-15T11:33:21.016Z,1.19
2018-12-15T11:35:31.852Z,1.23
2018-12-15T11:37:42.705Z,1.29
2018-12-15T11:39:55.158Z,1.28
2018-12-15T11:42:06.277Z,1.25
2018-12-15T11:44:17.193Z,1.28
2018-12-15T11:46:28.021Z,1.27
2018-12-15T11:48:38.874Z,1.27
2018-12-15T11:50:49.764Z,1.26
2018-12-15T11:53:00.641Z,1.27
2018-12-15T11:55:11.504Z,1.34
2018-12-15T11:57:22.348Z,1.26
2018-12-15T11:59:33.201Z,1.23
2018-12-15T12:01:44.051Z,1.24
2018-12-15T12:03:54.986Z,1.20
2018-12-15T12:06:05.849Z,1.19
2018-12-15T12:08:16.759Z,1.22
2018-12-15T12:10:27.622Z,1.23
2018-12-15T12:12:38.464Z,1.25
2018-12-15T12:14:49.329Z,1.24
2018-12-15T12:17:00.189Z,1.26
2018-12-15T12:19:11.045Z,1.25
2018-12-15T12:21:21.941Z,1.24
2018-12-15T12:23:32.797Z,1.30
2018-12-15T12:25:43.679Z,1.27
2018-12-15T12:27:54.547Z,1.26
2018-12-15T12:30:05.753Z,1.24
2018-12-15T12:32:16.688Z,1.20
2018-12-15T12:34:27.532Z,1.20
2018-12-15T12:36:38.395Z,1.19
2018-12-15T12:38:49.241Z,1.22
2018-12-15T12:41:00.119Z,1.23
2018-12-15T12:43:10.968Z,1.17
2018-12-15T12:45:21.904Z,1.20
2018-12-15T12:47:32.776Z,1.22
2018-12-15T12:49:43.751Z,1.20
2018-12-15T12:51:54.616Z,1.17
2018-12-15T12:54:05.525Z,1.24
2018-12-15T12:56:16.384Z,1.24
2018-12-15T12:58:27.264Z,1.28
2018-12-15T13:00:38.236Z,1.28
2018-12-15T13:02:49.059Z,1.23
2018-12-15T13:04:59.951Z,1.29
2018-12-15T13:07:10.856Z,1.28
2018-12-15T13:09:21.700Z,1.23
2018-12-15T13:11:32.656Z,1.25
2018-12-15T13:13:43.497Z,1.25
2018-12-15T13:15:54.361Z,1.26
2018-12-15T13:18:05.367Z,1.24
2018-12-15T13:20:16.212Z,1.33
2018-12-15T13:22:27.191Z,1.33
2018-12-15T13:24:38.064Z,1.25
2018-12-15T13:26:48.905Z,1.33
2018-12-15T13:28:59.901Z,1.24
2018-12-15T13:31:10.791Z,1.21
2018-12-15T13:33:32.549Z,1.20
2018-12-15T13:35:43.556Z,1.19
2018-12-15T13:37:54.425Z,1.15
2018-12-15T13:40:05.717Z,1.21
2018-12-15T13:42:16.596Z,1.24
2018-12-15T13:44:28.432Z,1.24
2018-12-15T13:46:39.438Z,1.08
2018-12-15T13:48:50.357Z,1.10
2018-12-15T13:51:01.260Z,1.10
2018-12-15T13:53:12.184Z,1.11
2018-12-15T13:55:23.107Z,1.14
2018-12-15T13:57:33.997Z,1.20
2018-12-15T13:59:44.865Z,1.31
2018-12-15T14:01:55.742Z,1.31
2018-12-15T14:04:06.652Z,1.28
2018-12-15T14:06:17.533Z,1.24
2018-12-15T14:08:28.430Z,1.19
2018-12-15T14:10:39.285Z,1.17
2018-12-15T14:12:50.160Z,1.11
2018-12-15T14:15:01.153Z,1.10
2018-12-15T14:17:12.122Z,1.13
2018-12-15T14:19:23.048Z,1.12
2018-12-15T14:21:33.909Z,1.14
2018-12-15T14:23:44.760Z,1.18
2018-12-15T14:25:55.629Z,1.21
2018-12-15T14:28:06.499Z,1.22
2018-12-15T14:30:17.338Z,1.27
2018-12-15T14:32:28.348Z,1.28
2018-12-15T14:34:39.209Z,1.20
2018-12-15T14:36:50.099Z,1.20
2018-12-15T14:39:00.946Z,1.17
2018-12-15T14:41:11.844Z,1.49
2018-12-15T14:43:22.739Z,1.72
2018-12-15T14:45:33.628Z,1.66
2018-12-15T14:47:44.566Z,1.58
2018-12-15T14:49:55.409Z,1.36
2018-12-15T14:52:06.278Z,1.26
2018-12-15T14:54:17.117Z,1.26
2018-12-15T14:56:28.128Z,1.25
2018-12-15T14:58:39.094Z,1.26
2018-12-15T15:00:50.045Z,1.24
2018-12-15T15:03:00.916Z,1.18
2018-12-15T15:05:11.785Z,1.18
2018-12-15T15:07:22.701Z,1.20
2018-12-15T15:09:33.544Z,1.26
2018-12-15T15:11:44.403Z,1.27
2018-12-15T15:13:55.393Z,1.26
2018-12-15T15:16:06.233Z,1.23
2018-12-15T15:18:17.140Z,1.27
2018-12-15T15:20:29.932Z,1.24
2018-12-15T15:22:40.893Z,1.18
2018-12-15T15:24:51.739Z,1.19
2018-12-15T15:27:02.726Z,1.18
2018-12-15T15:29:13.677Z,1.19
2018-12-15T15:31:24.529Z,1.28
2018-12-15T15:33:35.393Z,1.44
2018-12-15T15:35:46.249Z,1.37
2018-12-15T15:37:57.111Z,1.34
2018-12-15T15:40:08.101Z,1.51
2018-12-15T15:42:18.942Z,1.99
2018-12-15T15:44:29.832Z,2.31
2018-12-15T15:46:40.702Z,2.15
2018-12-15T15:48:51.598Z,1.89
2018-12-15T15:51:02.517Z,1.72
2018-12-15T15:53:13.393Z,1.60
2018-12-15T15:55:24.385Z,1.48
2018-12-15T15:57:35.377Z,1.39
2018-12-15T15:59:46.236Z,1.34
2018-12-15T16:01:57.084Z,1.32
2018-12-15T16:04:07.965Z,1.23
2018-12-15T16:06:18.812Z,1.60
2018-12-15T16:08:29.674Z,1.81
2018-12-15T16:10:40.568Z,1.63
2018-12-15T16:12:51.510Z,1.58
2018-12-15T16:15:03.614Z,1.50
2018-12-15T16:17:14.474Z,1.54
2018-12-15T16:19:25.376Z,1.49
2018-12-15T16:21:36.256Z,1.42
2018-12-15T16:23:47.153Z,1.42
2018-12-15T16:25:58.032Z,1.30
2018-12-15T16:28:09.029Z,1.28
2018-12-15T16:30:19.930Z,1.24
2018-12-15T16:32:30.774Z,1.23
2018-12-15T16:34:41.731Z,1.20
2018-12-15T16:36:52.625Z,1.16
2018-12-15T16:39:05.561Z,1.16
2018-12-15T16:41:16.459Z,1.17
2018-12-15T16:43:27.342Z,1.23
2018-12-15T16:45:38.240Z,1.11
2018-12-15T16:47:49.106Z,1.05
2018-12-15T16:49:59.986Z,1.06
2018-12-15T16:52:10.976Z,1.08
2018-12-15T16:54:21.828Z,1.08
2018-12-15T16:56:32.724Z,1.33
2018-12-15T16:58:43.574Z,1.28
2018-12-15T17:00:54.470Z,1.22
2018-12-15T17:03:05.328Z,1.27
2018-12-15T17:05:16.213Z,1.29
2018-12-15T17:07:27.084Z,1.29
2018-12-15T17:09:37.907Z,1.21
2018-12-15T17:11:48.819Z,1.15
2018-12-15T17:13:59.702Z,1.11
2018-12-15T17:16:10.609Z,1.09
2018-12-15T17:18:21.497Z,1.04
2018-12-15T17:20:32.349Z,1.05
2018-12-15T17:22:43.209Z,0.94
2018-12-15T17:24:54.062Z,0.94
2018-12-15T17:27:04.956Z,0.90
2018-12-15T17:29:15.848Z,0.90
2018-12-15T17:31:26.830Z,0.90
2018-12-15T17:33:37.677Z,0.84
2018-12-15T17:35:48.667Z,0.91
2018-12-15T17:37:59.559Z,1.00
2018-12-15T17:40:10.888Z,0.84
2018-12-15T17:42:21.776Z,0.81
2018-12-15T17:44:32.667Z,0.74
2018-12-15T17:46:43.615Z,0.62
2018-12-15T17:48:54.474Z,0.66
2018-12-15T17:51:05.363Z,0.47
2018-12-15T17:53:16.260Z,0.41
2018-12-15T17:55:27.904Z,0.45
2018-12-15T17:57:38.789Z,0.46
2018-12-15T17:59:49.634Z,0.36
2018-12-15T18:02:00.548Z,0.34
2018-12-15T18:04:11.430Z,0.46
2018-12-15T18:06:22.269Z,0.51
2018-12-15T18:08:33.223Z,0.52
2018-12-15T18:10:44.088Z,0.45
2018-12-15T18:12:54.984Z,0.37
2018-12-15T18:15:06.290Z,0.32
2018-12-15T18:17:17.278Z,0.23
2018-12-15T18:19:28.655Z,0.30
2018-12-15T18:21:39.496Z,0.24
2018-12-15T18:23:50.357Z,0.13
2018-12-15T18:26:01.219Z,0.13
2018-12-15T18:28:12.064Z,0.11
2018-12-15T18:30:22.927Z,0.09
2018-12-15T18:32:33.812Z,0.03
2018-12-15T18:34:44.675Z,0.03
2018-12-15T18:36:55.517Z,0.10
2018-12-15T18:39:06.529Z,0.15
2018-12-15T18:41:17.396Z,0.18
2018-12-15T18:43:28.271Z,0.10
2018-12-15T18:45:39.119Z,-0.04
2018-12-15T18:47:49.992Z,-0.05
2018-12-15T18:50:00.912Z,-0.08
2018-12-15T18:52:11.753Z,-0.10
2018-12-15T18:54:22.592Z,-0.07
2018-12-15T18:56:33.685Z,-0.10
2018-12-15T18:58:44.565Z,-0.15
2018-12-15T19:00:55.568Z,-0.19
2018-12-15T19:03:06.405Z,-0.22
2018-12-15T19:05:17.302Z,-0.27
2018-12-15T19:07:28.181Z,-0.32
2018-12-15T19:09:39.030Z,-0.28
2018-12-15T19:11:49.908Z,-0.30
2018-12-15T19:14:00.868Z,-0.32
2018-12-15T19:16:11.719Z,-0.31
2018-12-15T19:18:22.598Z,-0.31
2018-12-15T19:20:33.488Z,-0.33
2018-12-15T19:22:44.353Z,-0.35
2018-12-15T19:24:55.210Z,-0.33
2018-12-15T19:27:06.111Z,-0.47
2018-12-15T19:29:16.997Z,-0.51
2018-12-15T19:31:27.891Z,-0.47
2018-12-15T19:33:38.753Z,-0.45
2018-12-15T19:35:49.614Z,-0.47
2018-12-15T19:38:00.480Z,-0.50
2018-12-15T19:40:11.339Z,-0.46
2018-12-15T19:42:22.216Z,-0.47
2018-12-15T19:44:33.129Z,-0.44
2018-12-15T19:46:44.047Z,-0.44
2018-12-15T19:48:54.887Z,-0.43
2018-12-15T19:51:05.782Z,-0.43
2018-12-15T19:53:16.673Z,-0.50
2018-12-15T19:55:27.519Z,-0.47
2018-12-15T19:57:38.397Z,-0.51
2018-12-15T19:59:49.209Z,-0.51
2018-12-15T20:02:00.073Z,-0.55
2018-12-15T20:04:10.945Z,-0.60
2018-12-15T20:06:21.804Z,-0.60
2018-12-15T20:08:32.712Z,-0.56
2018-12-15T20:10:43.564Z,-0.58
2018-12-15T20:12:54.467Z,-0.57
2018-12-15T20:15:05.459Z,-0.57
2018-12-15T20:17:16.324Z,-0.57
2018-12-15T20:19:27.226Z,-0.61
2018-12-15T20:21:38.150Z,-0.68
2018-12-15T20:23:49.042Z,-0.71
2018-12-15T20:25:59.903Z,-0.71
2018-12-15T20:28:10.821Z,-0.74
2018-12-15T20:30:21.676Z,-0.71
2018-12-15T20:32:32.626Z,-0.69
2018-12-15T20:34:43.603Z,-0.75
2018-12-15T20:36:54.803Z,-0.74
2018-12-15T20:39:06.087Z,-0.74
2018-12-15T20:41:16.979Z,-0.77
2018-12-15T20:43:28.009Z,-0.82
2018-12-15T20:45:38.930Z,-0.80
2018-12-15T20:47:49.824Z,-0.88
2018-12-15T20:50:00.794Z,-0.89
2018-12-15T20:52:11.750Z,-0.89
2018-12-15T20:54:22.613Z,-0.90
2018-12-15T20:56:33.481Z,-0.92
2018-12-15T20:58:44.388Z,-0.99
2018-12-15T21:00:55.268Z,-0.95
2018-12-15T21:03:06.238Z,-0.99
2018-12-15T21:05:17.158Z,-0.99
2018-12-15T21:07:28.050Z,-0.98
2018-12-15T21:09:38.965Z,-0.99
2018-12-15T21:11:49.859Z,-1.04
2018-12-15T21:14:00.736Z,-1.07
2018-12-15T21:16:11.748Z,-1.13
2018-12-15T21:18:22.625Z,-1.13
2018-12-15T21:20:33.520Z,-1.13
2018-12-15T21:22:44.371Z,-1.14
2018-12-15T21:24:55.244Z,-1.15
2018-12-15T21:27:06.205Z,-1.18
2018-12-15T21:29:17.049Z,-1.15
2018-12-15T21:31:27.953Z,-1.13
2018-12-15T21:33:38.856Z,-1.09
2018-12-15T21:35:49.767Z,-1.08
2018-12-15T21:38:00.664Z,-1.14
2018-12-15T21:40:12.560Z,-1.16
2018-12-15T21:42:23.421Z,-1.17
2018-12-15T21:44:34.350Z,-1.12
2018-12-15T21:46:45.228Z,-1.13
2018-12-15T21:48:56.102Z,-1.24
2018-12-15T21:51:06.998Z,-1.32
2018-12-15T21:53:17.958Z,-1.30
2018-12-15T21:55:28.814Z,-1.32
2018-12-15T21:57:39.702Z,-1.31
2018-12-15T21:59:50.556Z,-1.27
2018-12-15T22:02:01.457Z,-1.29
2018-12-15T22:04:12.282Z,-1.23
2018-12-15T22:06:23.121Z,-1.16
2018-12-15T22:08:34.029Z,-1.29
2018-12-15T22:10:44.861Z,-1.36
2018-12-15T22:12:55.727Z,-1.36
2018-12-15T22:15:06.829Z,-1.36
2018-12-15T22:17:17.712Z,-1.37
2018-12-15T22:19:28.619Z,-1.34
2018-12-15T22:21:39.486Z,-1.35
2018-12-15T22:23:50.386Z,-1.30
2018-12-15T22:26:01.232Z,-1.34
2018-12-15T22:28:12.069Z,-1.37
2018-12-15T22:30:22.940Z,-1.33
2018-12-15T22:32:33.910Z,-1.12
2018-12-15T22:34:44.786Z,-0.91
2018-12-15T22:36:55.640Z,-0.91
2018-12-15T22:39:06.513Z,-1.00
2018-12-15T22:41:17.342Z,-1.07
2018-12-15T22:43:28.252Z,-1.05
2018-12-15T22:45:39.126Z,-1.15
2018-12-15T22:47:49.942Z,-1.13
2018-12-15T22:50:00.784Z,-1.13
2018-12-15T22:52:11.689Z,-1.16
2018-12-15T22:54:22.646Z,-1.20
2018-12-15T22:56:33.496Z,-1.21
2018-12-15T22:58:44.342Z,-1.25
2018-12-15T23:01:01.489Z,-1.27
2018-12-15T23:03:12.352Z,-1.27
2018-12-15T23:05:23.228Z,-1.36
2018-12-15T23:07:34.113Z,-1.32
2018-12-15T23:09:44.980Z,-1.32
2018-12-15T23:11:56.050Z,-1.25
2018-12-15T23:14:06.922Z,-1.26
2018-12-15T23:16:17.834Z,-1.20
2018-12-15T23:18:28.781Z,-1.15
2018-12-15T23:20:40.569Z,-1.23
2018-12-15T23:22:51.427Z,-1.26
2018-12-15T23:25:02.535Z,-1.29
2018-12-15T23:27:13.420Z,-1.23
2018-12-15T23:29:24.300Z,-1.24
2018-12-15T23:31:35.178Z,-1.23
2018-12-15T23:33:46.055Z,-1.25
2018-12-15T23:35:56.990Z,-1.19
2018-12-15T23:38:07.826Z,-1.09
2018-12-15T23:40:18.789Z,-1.08
2018-12-15T23:42:29.767Z,-1.06
2018-12-15T23:44:40.640Z,-1.11
2018-12-15T23:46:51.502Z,-1.13
2018-12-15T23:49:02.364Z,-1.09
2018-12-15T23:51:13.189Z,-1.07
2018-12-15T23:53:24.058Z,-1.05
2018-12-15T23:55:34.877Z,-1.11
2018-12-15T23:57:45.728Z,-1.07
2018-12-15T23:59:56.572Z,-1.05
